Time;durP1;ratioP1;P1;durP2;ratioP2;P2;SDS_P1;SDS_P2;PMS_P1;PMS_P2;Temp;Humidity;BMP_temperature;BMP_pressure;BME280_temperature;BME280_humidity;BME280_pressure;Samples;Min_cycle;Max_cycle;Signal;HPM_P1;HPM_P2
2022/12/03 00:01:04;;;;;;;31.05;15.75;;;;;;;;;;5034783;28;20436;-72
2022/12/03 00:03:34;;;;;;;29.95;16.33;;;;;;;;;;5045182;28;20423;-72
2022/12/03 00:06:00;;;;;;;29.13;15.38;;;;;;;;;;5071542;28;20453;-72
2022/12/03 00:08:26;;;;;;;29.65;16.40;;;;;;;;;;5052198;28;20426;-72
2022/12/03 00:10:52;;;;;;;27.58;15.07;;;;;;;;;;5039990;28;20427;-72
2022/12/03 00:13:18;;;;;;;27.23;15.00;;;;;;;;;;5034405;28;20430;-72
2022/12/03 00:15:44;;;;;;;30.55;15.68;;;;;;;;;;5053291;28;20407;-72
2022/12/03 00:18:10;;;;;;;28.67;15.30;;;;;;;;;;5036728;28;20866;-72
2022/12/03 00:20:36;;;;;;;30.17;14.38;;;;;;;;;;5051282;28;20804;-72
2022/12/03 00:23:02;;;;;;;27.05;14.80;;;;;;;;;;5068309;28;20458;-72
2022/12/03 00:25:28;;;;;;;25.00;14.10;;;;;;;;;;5053279;28;20404;-72
2022/12/03 00:27:54;;;;;;;26.87;15.00;;;;;;;;;;5051759;28;20426;-72
2022/12/03 00:30:21;;;;;;;24.75;14.32;;;;;;;;;;5045013;28;20951;-72
2022/12/03 00:32:47;;;;;;;25.67;13.73;;;;;;;;;;5047724;28;20926;-72
2022/12/03 00:35:13;;;;;;;25.50;13.60;;;;;;;;;;5031702;28;21010;-72
2022/12/03 00:37:39;;;;;;;24.27;13.48;;;;;;;;;;5042189;28;20421;-72
2022/12/03 00:40:06;;;;;;;26.37;14.13;;;;;;;;;;5030672;28;20439;-72
2022/12/03 00:42:32;;;;;;;24.77;12.55;;;;;;;;;;5049166;28;20513;-72
2022/12/03 00:44:58;;;;;;;23.33;13.50;;;;;;;;;;5053170;28;20407;-72
2022/12/03 00:47:24;;;;;;;22.88;12.98;;;;;;;;;;5052512;28;20415;-72
2022/12/03 00:49:50;;;;;;;23.30;12.93;;;;;;;;;;5035591;28;20911;-72
2022/12/03 00:52:16;;;;;;;23.73;13.23;;;;;;;;;;5048512;28;20438;-72
2022/12/03 00:54:42;;;;;;;21.92;12.77;;;;;;;;;;5033187;28;20436;-72
2022/12/03 00:57:08;;;;;;;23.45;13.15;;;;;;;;;;5043238;28;20443;-72
2022/12/03 00:59:34;;;;;;;19.45;12.00;;;;;;;;;;5052101;28;20502;-72
2022/12/03 01:02:00;;;;;;;20.75;12.68;;;;;;;;;;5034398;28;20428;-72
2022/12/03 01:04:26;;;;;;;19.20;11.80;;;;;;;;;;5037079;28;20421;-72
2022/12/03 01:06:53;;;;;;;20.60;12.77;;;;;;;;;;5033920;28;20446;-72
2022/12/03 01:09:19;;;;;;;20.23;12.55;;;;;;;;;;5052077;28;20435;-72
2022/12/03 01:11:45;;;;;;;20.42;12.38;;;;;;;;;;5029812;28;20423;-72
2022/12/03 01:14:12;;;;;;;21.42;13.70;;;;;;;;;;5035085;28;20423;-72
2022/12/03 01:16:38;;;;;;;20.05;12.50;;;;;;;;;;5051285;28;20416;-72
2022/12/03 01:19:05;;;;;;;20.23;12.33;;;;;;;;;;5052880;28;20414;-72
2022/12/03 01:21:31;;;;;;;19.63;12.20;;;;;;;;;;5048511;28;20462;-72
2022/12/03 01:23:58;;;;;;;20.98;13.27;;;;;;;;;;5053763;28;20426;-72
2022/12/03 01:26:24;;;;;;;22.88;13.50;;;;;;;;;;5066775;28;20426;-72
2022/12/03 01:28:50;;;;;;;21.03;13.73;;;;;;;;;;5037443;28;20480;-72
2022/12/03 01:34:01;;;;;;;20.83;13.02;;;;;;;;;;5055526;28;20427;-72
2022/12/03 01:36:27;;;;;;;19.97;13.23;;;;;;;;;;5053834;28;20561;-72
2022/12/03 01:38:53;;;;;;;21.05;13.63;;;;;;;;;;5036773;28;20427;-72
2022/12/03 01:41:20;;;;;;;22.55;14.00;;;;;;;;;;5012859;28;20513;-72
2022/12/03 01:43:46;;;;;;;22.58;13.77;;;;;;;;;;5031806;28;20434;-72
2022/12/03 01:46:17;;;;;;;21.88;14.15;;;;;;;;;;5030566;28;20430;-72
2022/12/03 01:48:43;;;;;;;22.25;13.27;;;;;;;;;;5032795;28;20403;-72
2022/12/03 01:51:09;;;;;;;21.80;14.75;;;;;;;;;;5029934;28;20510;-72
2022/12/03 01:53:35;;;;;;;22.95;13.80;;;;;;;;;;5032216;28;20902;-73
2022/12/03 01:56:01;;;;;;;21.67;13.82;;;;;;;;;;5016281;28;20406;-72
2022/12/03 01:58:28;;;;;;;22.27;13.65;;;;;;;;;;5019101;28;20426;-73
2022/12/03 02:00:54;;;;;;;21.70;13.93;;;;;;;;;;5031294;28;20520;-72
2022/12/03 02:03:25;;;;;;;22.27;14.57;;;;;;;;;;5014663;28;20426;-72
2022/12/03 02:05:52;;;;;;;22.27;14.37;;;;;;;;;;5020488;28;20512;-72
2022/12/03 02:08:28;;;;;;;21.77;13.93;;;;;;;;;;5031828;28;20507;-73
2022/12/03 02:10:54;;;;;;;21.95;14.30;;;;;;;;;;5029268;28;20513;-72
2022/12/03 02:13:20;;;;;;;22.17;14.35;;;;;;;;;;4986887;28;20476;-72
2022/12/03 02:15:46;;;;;;;22.52;13.82;;;;;;;;;;5027286;28;20817;-71
2022/12/03 02:18:12;;;;;;;24.40;14.40;;;;;;;;;;4992356;28;20444;-71
2022/12/03 02:20:44;;;;;;;23.35;14.65;;;;;;;;;;5019525;28;20423;-72
2022/12/03 02:23:15;;;;;;;25.42;15.15;;;;;;;;;;5012530;28;20411;-72
2022/12/03 02:25:42;;;;;;;24.73;14.90;;;;;;;;;;5025507;28;20768;-72
2022/12/03 02:28:08;;;;;;;25.38;15.02;;;;;;;;;;5015394;28;20403;-72
2022/12/03 02:30:35;;;;;;;23.15;14.35;;;;;;;;;;5028562;28;20427;-72
2022/12/03 02:33:01;;;;;;;24.10;14.68;;;;;;;;;;5023090;28;20454;-72
2022/12/03 02:35:29;;;;;;;22.13;14.85;;;;;;;;;;5028667;28;20415;-72
2022/12/03 02:38:16;;;;;;;23.80;14.97;;;;;;;;;;5036140;28;20946;-72
2022/12/03 02:40:43;;;;;;;24.27;15.10;;;;;;;;;;5051299;28;20986;-71
2022/12/03 02:43:10;;;;;;;23.77;14.98;;;;;;;;;;5036794;28;20423;-72
2022/12/03 02:45:39;;;;;;;26.40;15.38;;;;;;;;;;5053306;28;20431;-72
2022/12/03 02:48:34;;;;;;;24.50;15.38;;;;;;;;;;5051863;28;20472;-72
2022/12/03 02:51:05;;;;;;;24.65;15.30;;;;;;;;;;5028102;28;20439;-73
2022/12/03 02:53:34;;;;;;;26.35;15.63;;;;;;;;;;5052897;28;20410;-73
2022/12/03 02:56:01;;;;;;;24.50;15.52;;;;;;;;;;5037022;28;20413;-72
2022/12/03 02:58:28;;;;;;;25.70;16.20;;;;;;;;;;5035752;28;20419;-71
2022/12/03 03:00:55;;;;;;;26.25;15.27;;;;;;;;;;5052303;28;20454;-71
2022/12/03 03:03:21;;;;;;;25.03;16.17;;;;;;;;;;5040186;28;20456;-71
2022/12/03 03:05:48;;;;;;;24.75;15.57;;;;;;;;;;5043654;28;20434;-72
2022/12/03 03:08:14;;;;;;;25.23;15.88;;;;;;;;;;5053757;28;20416;-72
2022/12/03 03:10:41;;;;;;;26.38;16.02;;;;;;;;;;5051827;28;20424;-72
2022/12/03 03:13:12;;;;;;;26.88;16.40;;;;;;;;;;5035481;28;20438;-72
2022/12/03 03:15:39;;;;;;;26.85;16.52;;;;;;;;;;5053352;28;20419;-72
2022/12/03 03:18:07;;;;;;;25.67;15.68;;;;;;;;;;5051419;28;20427;-72
2022/12/03 03:20:33;;;;;;;24.98;14.98;;;;;;;;;;5045485;28;20427;-72
2022/12/03 03:23:12;;;;;;;25.88;15.25;;;;;;;;;;5051942;28;20434;-72
2022/12/03 03:25:38;;;;;;;25.10;15.93;;;;;;;;;;5037403;28;20400;-72
2022/12/03 03:28:05;;;;;;;25.02;15.07;;;;;;;;;;5035279;28;20423;-72
2022/12/03 03:30:32;;;;;;;25.85;15.30;;;;;;;;;;5053281;28;20424;-73
2022/12/03 03:32:58;;;;;;;27.05;16.55;;;;;;;;;;5050948;28;20947;-72
2022/12/03 03:35:24;;;;;;;25.15;15.55;;;;;;;;;;5054099;28;20486;-72
2022/12/03 03:37:52;;;;;;;27.05;15.68;;;;;;;;;;5052927;28;20430;-74
2022/12/03 03:40:20;;;;;;;25.10;15.68;;;;;;;;;;5052048;28;20487;-72
2022/12/03 03:42:46;;;;;;;26.50;15.32;;;;;;;;;;5053278;28;20463;-72
2022/12/03 03:45:12;;;;;;;26.25;15.98;;;;;;;;;;5035089;28;20423;-73
2022/12/03 03:47:39;;;;;;;25.60;15.50;;;;;;;;;;5033207;28;20424;-72
2022/12/03 03:50:06;;;;;;;25.70;15.25;;;;;;;;;;5046669;28;20438;-72
2022/12/03 03:52:32;;;;;;;26.60;15.30;;;;;;;;;;5037338;28;20930;-72
2022/12/03 03:54:59;;;;;;;25.27;15.45;;;;;;;;;;5037251;28;20407;-72
2022/12/03 03:57:25;;;;;;;23.23;14.93;;;;;;;;;;5035000;28;20771;-72
2022/12/03 03:59:51;;;;;;;26.67;15.00;;;;;;;;;;5046589;28;20415;-72
2022/12/03 04:02:22;;;;;;;24.65;15.63;;;;;;;;;;5069058;28;21056;-73
2022/12/03 04:04:48;;;;;;;24.42;15.13;;;;;;;;;;5037023;28;20538;-72
2022/12/03 04:07:15;;;;;;;25.50;14.95;;;;;;;;;;5051505;28;20434;-70
2022/12/03 04:09:41;;;;;;;23.77;15.37;;;;;;;;;;5039313;28;20443;-71
2022/12/03 04:14:52;;;;;;;23.75;14.75;;;;;;;;;;5034794;28;20446;-72
2022/12/03 04:17:18;;;;;;;24.25;15.93;;;;;;;;;;5052288;28;20423;-72
2022/12/03 04:19:46;;;;;;;22.65;15.00;;;;;;;;;;5036213;28;20425;-72
2022/12/03 04:28:47;;;;;;;24.45;15.25;;;;;;;;;;5053444;28;20415;-72
2022/12/03 04:30:28;;;;;;;24.08;15.27;;;;;;;;;;5066851;28;20506;-71
2022/12/03 04:35:41;;;;;;;24.65;15.73;;;;;;;;;;5039586;28;20410;-71
2022/12/03 04:38:08;;;;;;;25.08;15.40;;;;;;;;;;5051906;28;20419;-72
2022/12/03 04:44:31;;;;;;;24.90;15.93;;;;;;;;;;5007563;28;20526;-71
2022/12/03 04:46:24;;;;;;;23.58;15.20;;;;;;;;;;4990442;28;20820;-72
2022/12/03 04:48:50;;;;;;;23.15;15.15;;;;;;;;;;5002527;28;20406;-72
2022/12/03 04:51:16;;;;;;;23.85;16.00;;;;;;;;;;5053020;28;20523;-72
2022/12/03 04:53:42;;;;;;;24.35;15.23;;;;;;;;;;5036769;28;20396;-72
2022/12/03 04:56:08;;;;;;;25.03;15.60;;;;;;;;;;5051324;28;20502;-72
2022/12/03 04:58:34;;;;;;;24.73;15.57;;;;;;;;;;5053265;28;20450;-72
2022/12/03 05:01:00;;;;;;;22.92;15.15;;;;;;;;;;5053228;28;20419;-72
2022/12/03 05:03:26;;;;;;;24.42;15.05;;;;;;;;;;5057116;28;20404;-71
2022/12/03 05:05:52;;;;;;;24.70;16.15;;;;;;;;;;5038109;28;20416;-71
2022/12/03 05:08:18;;;;;;;24.67;15.47;;;;;;;;;;5027059;28;20420;-71
2022/12/03 05:10:47;;;;;;;25.23;15.75;;;;;;;;;;5052040;28;20426;-72
2022/12/03 05:13:13;;;;;;;25.60;15.63;;;;;;;;;;5053138;28;20419;-71
2022/12/03 05:15:39;;;;;;;22.97;14.70;;;;;;;;;;5038178;28;20419;-71
2022/12/03 05:18:05;;;;;;;25.85;16.25;;;;;;;;;;5040377;28;20404;-71
2022/12/03 05:20:40;;;;;;;26.13;16.13;;;;;;;;;;5054409;28;20426;-72
2022/12/03 05:23:07;;;;;;;26.08;15.40;;;;;;;;;;5056579;28;20434;-71
2022/12/03 05:25:33;;;;;;;24.70;15.73;;;;;;;;;;5062768;28;20415;-72
2022/12/03 05:27:59;;;;;;;25.52;15.95;;;;;;;;;;5054545;28;20426;-72
2022/12/03 05:30:25;;;;;;;24.05;15.80;;;;;;;;;;5034017;28;20438;-71
2022/12/03 05:32:51;;;;;;;26.63;15.93;;;;;;;;;;5036501;28;20486;-71
2022/12/03 05:35:17;;;;;;;24.80;16.37;;;;;;;;;;5039115;28;20491;-72
2022/12/03 05:37:43;;;;;;;24.98;16.65;;;;;;;;;;5055090;28;20503;-72
2022/12/03 05:40:10;;;;;;;26.60;17.55;;;;;;;;;;5039349;28;20427;-72
2022/12/03 05:42:55;;;;;;;25.88;15.63;;;;;;;;;;5054118;28;20431;-72
2022/12/03 05:45:25;;;;;;;27.55;16.38;;;;;;;;;;5048595;28;20467;-72
2022/12/03 05:47:53;;;;;;;26.63;16.00;;;;;;;;;;5038829;28;20478;-72
2022/12/03 05:50:20;;;;;;;27.58;16.23;;;;;;;;;;5054428;28;20506;-72
2022/12/03 05:52:46;;;;;;;24.90;15.80;;;;;;;;;;5055828;28;20470;-72
2022/12/03 05:55:12;;;;;;;26.02;16.30;;;;;;;;;;5054162;28;20825;-72
2022/12/03 05:57:38;;;;;;;26.85;16.33;;;;;;;;;;5071881;28;20439;-72
2022/12/03 06:00:06;;;;;;;25.73;16.17;;;;;;;;;;5052308;28;20431;-72
2022/12/03 06:02:32;;;;;;;28.27;16.20;;;;;;;;;;5023122;28;20751;-72
2022/12/03 06:04:58;;;;;;;29.60;16.38;;;;;;;;;;5038427;28;20477;-72
2022/12/03 06:07:24;;;;;;;25.77;16.27;;;;;;;;;;5071507;28;20415;-71
2022/12/03 06:09:50;;;;;;;25.92;15.88;;;;;;;;;;5036391;28;20460;-71
2022/12/03 06:12:16;;;;;;;26.52;16.33;;;;;;;;;;5054106;28;20416;-71
2022/12/03 06:14:42;;;;;;;26.83;16.70;;;;;;;;;;5053821;28;20420;-71
2022/12/03 06:17:08;;;;;;;26.33;16.48;;;;;;;;;;5048286;28;20456;-71
2022/12/03 06:19:34;;;;;;;27.08;15.80;;;;;;;;;;5043988;28;20423;-71
2022/12/03 06:22:00;;;;;;;25.70;16.45;;;;;;;;;;5073473;28;20820;-71
2022/12/03 06:24:26;;;;;;;26.48;15.77;;;;;;;;;;5034602;28;20417;-72
2022/12/03 06:26:53;;;;;;;28.38;16.63;;;;;;;;;;5035609;28;20911;-71
2022/12/03 06:29:19;;;;;;;25.90;15.68;;;;;;;;;;5034030;28;20431;-72
2022/12/03 06:31:45;;;;;;;26.37;16.27;;;;;;;;;;5022398;28;20408;-72
2022/12/03 06:34:11;;;;;;;25.40;16.45;;;;;;;;;;5039200;28;20410;-72
2022/12/03 06:36:37;;;;;;;27.07;15.73;;;;;;;;;;5053666;28;20511;-72
2022/12/03 06:39:03;;;;;;;28.60;16.10;;;;;;;;;;5052662;28;20432;-72
2022/12/03 06:41:29;;;;;;;24.20;15.60;;;;;;;;;;5037874;28;20775;-72
2022/12/03 06:43:55;;;;;;;35.53;17.15;;;;;;;;;;5053627;28;20524;-72
2022/12/03 06:46:21;;;;;;;25.05;15.82;;;;;;;;;;5036592;28;20416;-72
2022/12/03 06:48:47;;;;;;;26.10;15.87;;;;;;;;;;5035044;28;20409;-72
2022/12/03 06:51:13;;;;;;;24.10;15.20;;;;;;;;;;5051299;28;20506;-72
2022/12/03 06:53:39;;;;;;;27.20;16.15;;;;;;;;;;5052617;28;20450;-72
2022/12/03 06:56:05;;;;;;;27.85;15.85;;;;;;;;;;5037176;28;20446;-72
2022/12/03 06:58:31;;;;;;;26.83;16.08;;;;;;;;;;5051293;28;20420;-72
2022/12/03 07:00:57;;;;;;;25.77;15.73;;;;;;;;;;5054826;28;20407;-71
2022/12/03 07:03:23;;;;;;;26.13;15.38;;;;;;;;;;5054918;28;20720;-72
2022/12/03 07:05:49;;;;;;;28.77;15.57;;;;;;;;;;5054122;28;20488;-72
2022/12/03 07:08:16;;;;;;;27.02;18.13;;;;;;;;;;5035577;28;20443;-71
2022/12/03 07:10:42;;;;;;;28.70;16.77;;;;;;;;;;5040012;28;20424;-72
2022/12/03 07:13:08;;;;;;;27.55;16.23;;;;;;;;;;5053137;28;20411;-71
2022/12/03 07:15:34;;;;;;;27.75;16.45;;;;;;;;;;5028351;28;20424;-71
2022/12/03 07:18:00;;;;;;;27.73;17.02;;;;;;;;;;5052161;28;20412;-71
2022/12/03 07:20:26;;;;;;;27.02;16.27;;;;;;;;;;5031286;28;20471;-72
2022/12/03 07:22:52;;;;;;;27.98;17.20;;;;;;;;;;5036757;28;20965;-71
2022/12/03 07:25:18;;;;;;;27.83;16.58;;;;;;;;;;5027924;28;20440;-71
2022/12/03 07:27:46;;;;;;;27.25;16.05;;;;;;;;;;5028821;28;20459;-71
2022/12/03 07:30:13;;;;;;;28.83;17.30;;;;;;;;;;5039316;28;20436;-71
2022/12/03 07:32:39;;;;;;;29.10;16.60;;;;;;;;;;5052831;28;20411;-72
2022/12/03 07:35:06;;;;;;;28.15;17.30;;;;;;;;;;5036829;28;20423;-72
2022/12/03 07:37:32;;;;;;;29.42;17.20;;;;;;;;;;5051782;28;20415;-72
2022/12/03 07:39:58;;;;;;;29.53;17.37;;;;;;;;;;5053113;28;20432;-74
2022/12/03 07:42:24;;;;;;;26.38;16.10;;;;;;;;;;5068600;28;20506;-72
2022/12/03 07:44:50;;;;;;;29.48;17.48;;;;;;;;;;5030957;28;20904;-73
2022/12/03 07:47:17;;;;;;;26.45;17.00;;;;;;;;;;5039412;28;20771;-72
2022/12/03 07:49:43;;;;;;;29.38;17.10;;;;;;;;;;5022183;28;20429;-72
2022/12/03 07:52:09;;;;;;;28.63;17.13;;;;;;;;;;5041621;28;20423;-72
2022/12/03 07:54:35;;;;;;;28.42;17.45;;;;;;;;;;5031041;28;20430;-72
2022/12/03 07:57:01;;;;;;;26.75;17.30;;;;;;;;;;5027527;28;20422;-72
2022/12/03 07:59:28;;;;;;;26.45;19.65;;;;;;;;;;5038828;28;20427;-72
2022/12/03 08:01:54;;;;;;;26.88;16.95;;;;;;;;;;5059428;28;20427;-72
2022/12/03 08:04:20;;;;;;;28.50;16.58;;;;;;;;;;5028211;28;20427;-72
2022/12/03 08:06:46;;;;;;;27.00;17.45;;;;;;;;;;5047465;28;20470;-72
2022/12/03 08:09:13;;;;;;;28.02;16.95;;;;;;;;;;5031580;28;20444;-72
2022/12/03 08:11:39;;;;;;;26.20;16.95;;;;;;;;;;5039031;28;20505;-72
2022/12/03 08:14:12;;;;;;;29.55;17.92;;;;;;;;;;5042975;28;20882;-73
2022/12/03 08:16:39;;;;;;;26.55;16.73;;;;;;;;;;5026719;28;20419;-73
2022/12/03 08:19:09;;;;;;;28.15;18.25;;;;;;;;;;5036866;28;20426;-72
2022/12/03 08:21:35;;;;;;;27.95;17.40;;;;;;;;;;5029505;28;20424;-73
2022/12/03 08:24:11;;;;;;;29.15;18.25;;;;;;;;;;5044406;28;20434;-72
2022/12/03 08:26:37;;;;;;;27.52;17.17;;;;;;;;;;5038042;28;20479;-74
2022/12/03 08:29:05;;;;;;;28.98;17.52;;;;;;;;;;5047972;28;20512;-74
2022/12/03 08:31:31;;;;;;;28.40;17.42;;;;;;;;;;5041207;28;20431;-73
2022/12/03 08:34:00;;;;;;;27.60;16.25;;;;;;;;;;5051738;28;20461;-73
2022/12/03 08:36:31;;;;;;;28.08;17.58;;;;;;;;;;5052318;28;20434;-73
2022/12/03 08:39:01;;;;;;;30.23;18.27;;;;;;;;;;5052323;28;20442;-72
2022/12/03 08:44:27;;;;;;;28.52;18.23;;;;;;;;;;5052479;28;20423;-73
2022/12/03 08:47:01;;;;;;;30.25;18.33;;;;;;;;;;5051085;28;20419;-73
2022/12/03 08:49:27;;;;;;;28.67;17.90;;;;;;;;;;5054291;28;20934;-73
2022/12/03 08:51:55;;;;;;;28.77;18.08;;;;;;;;;;5050916;28;20425;-74
2022/12/03 08:54:21;;;;;;;30.00;18.23;;;;;;;;;;5039452;28;20809;-73
2022/12/03 08:56:47;;;;;;;29.73;17.10;;;;;;;;;;5032985;28;20449;-73
2022/12/03 08:59:26;;;;;;;31.25;18.45;;;;;;;;;;5031699;28;20415;-73
2022/12/03 09:01:53;;;;;;;29.05;17.67;;;;;;;;;;5051810;28;20424;-73
2022/12/03 09:04:26;;;;;;;29.33;18.92;;;;;;;;;;5060044;28;20485;-72
2022/12/03 09:06:52;;;;;;;28.48;17.15;;;;;;;;;;5046142;28;20416;-73
2022/12/03 09:09:19;;;;;;;29.15;17.02;;;;;;;;;;5051447;28;20431;-73
2022/12/03 09:11:45;;;;;;;28.83;18.58;;;;;;;;;;5053108;28;20424;-72
2022/12/03 09:14:11;;;;;;;29.88;18.25;;;;;;;;;;5055287;28;20752;-73
2022/12/03 09:16:37;;;;;;;29.38;18.15;;;;;;;;;;5053225;28;20460;-72
2022/12/03 09:19:05;;;;;;;34.10;17.65;;;;;;;;;;5033513;28;20427;-72
2022/12/03 09:21:31;;;;;;;32.40;18.48;;;;;;;;;;5037455;28;20415;-72
2022/12/03 09:23:57;;;;;;;31.20;18.50;;;;;;;;;;5034471;28;20521;-72
2022/12/03 09:26:23;;;;;;;30.75;17.95;;;;;;;;;;5046975;28;20423;-72
2022/12/03 09:28:49;;;;;;;29.42;19.95;;;;;;;;;;5033548;28;20771;-72
2022/12/03 09:31:16;;;;;;;28.60;18.07;;;;;;;;;;5026985;28;20440;-72
2022/12/03 09:33:42;;;;;;;29.08;17.48;;;;;;;;;;5040722;28;20426;-73
2022/12/03 09:36:08;;;;;;;31.45;20.75;;;;;;;;;;5044526;28;20916;-73
2022/12/03 09:38:34;;;;;;;29.90;18.73;;;;;;;;;;5046824;28;20469;-73
2022/12/03 09:41:01;;;;;;;31.35;19.35;;;;;;;;;;5022544;28;20419;-73
2022/12/03 09:43:28;;;;;;;31.88;17.95;;;;;;;;;;5025181;28;20426;-73
2022/12/03 09:45:54;;;;;;;30.27;19.27;;;;;;;;;;5025233;28;20454;-73
2022/12/03 09:48:20;;;;;;;31.30;18.58;;;;;;;;;;5026793;28;20450;-72
2022/12/03 09:50:46;;;;;;;32.40;17.98;;;;;;;;;;4995352;28;20431;-73
2022/12/03 09:53:17;;;;;;;29.77;17.65;;;;;;;;;;5007869;28;20485;-72
2022/12/03 09:55:44;;;;;;;32.40;18.53;;;;;;;;;;5023828;28;20426;-72
2022/12/03 09:58:15;;;;;;;30.90;18.35;;;;;;;;;;5027074;28;20427;-72
2022/12/03 10:00:42;;;;;;;30.30;18.52;;;;;;;;;;4989441;28;20438;-72
2022/12/03 10:03:13;;;;;;;32.55;18.75;;;;;;;;;;5029788;28;20429;-75
2022/12/03 10:05:39;;;;;;;28.13;18.08;;;;;;;;;;5012962;28;20429;-73
2022/12/03 10:08:06;;;;;;;30.95;18.60;;;;;;;;;;5002097;28;20428;-73
2022/12/03 10:10:33;;;;;;;30.33;17.33;;;;;;;;;;5022081;28;20786;-73
2022/12/03 10:12:59;;;;;;;28.60;17.90;;;;;;;;;;5018844;28;20940;-74
2022/12/03 10:15:25;;;;;;;34.70;18.40;;;;;;;;;;5023440;28;20414;-73
2022/12/03 10:17:53;;;;;;;31.27;17.98;;;;;;;;;;5024919;28;20424;-73
2022/12/03 10:20:20;;;;;;;31.60;18.40;;;;;;;;;;5021668;28;20458;-73
2022/12/03 10:22:47;;;;;;;31.48;18.63;;;;;;;;;;5025085;28;20841;-73
2022/12/03 10:25:15;;;;;;;30.27;17.77;;;;;;;;;;5014057;28;20422;-72
2022/12/03 10:27:41;;;;;;;32.55;19.10;;;;;;;;;;5013898;28;20442;-72
2022/12/03 10:30:15;;;;;;;27.87;16.70;;;;;;;;;;5013135;28;20509;-72
2022/12/03 10:32:48;;;;;;;34.88;18.25;;;;;;;;;;5004590;28;20426;-73
2022/12/03 10:35:19;;;;;;;32.43;18.40;;;;;;;;;;5015425;28;20822;-73
2022/12/03 10:37:54;;;;;;;31.15;18.23;;;;;;;;;;5020698;28;20419;-73
2022/12/03 10:40:23;;;;;;;32.13;17.58;;;;;;;;;;5024213;28;20433;-73
2022/12/03 10:42:49;;;;;;;33.50;17.88;;;;;;;;;;5023501;28;20423;-73
2022/12/03 10:45:21;;;;;;;33.53;18.27;;;;;;;;;;5028552;28;20425;-73
2022/12/03 10:48:06;;;;;;;30.35;17.85;;;;;;;;;;5049922;28;20432;-73
2022/12/03 10:50:32;;;;;;;33.22;19.33;;;;;;;;;;5027550;28;20436;-72
2022/12/03 10:52:58;;;;;;;32.22;19.60;;;;;;;;;;5034937;28;20413;-72
2022/12/03 10:55:24;;;;;;;30.87;18.50;;;;;;;;;;5035904;28;20446;-72
2022/12/03 10:57:51;;;;;;;32.45;18.08;;;;;;;;;;5038051;28;20412;-72
2022/12/03 11:00:18;;;;;;;32.22;18.40;;;;;;;;;;5030168;28;20432;-73
2022/12/03 11:02:45;;;;;;;30.58;18.20;;;;;;;;;;5050432;28;20417;-73
2022/12/03 11:05:19;;;;;;;31.88;18.35;;;;;;;;;;5024478;28;20425;-72
2022/12/03 11:07:45;;;;;;;32.28;18.00;;;;;;;;;;5048970;28;20516;-73
2022/12/03 11:10:16;;;;;;;31.50;18.40;;;;;;;;;;5047798;28;20546;-73
2022/12/03 11:12:42;;;;;;;31.90;17.75;;;;;;;;;;5033196;28;20429;-72
2022/12/03 11:15:15;;;;;;;32.83;18.88;;;;;;;;;;5048032;28;20909;-72
2022/12/03 11:17:47;;;;;;;31.85;18.35;;;;;;;;;;5043117;28;20419;-72
2022/12/03 11:20:33;;;;;;;34.93;18.67;;;;;;;;;;5029194;28;20432;-73
2022/12/03 11:22:59;;;;;;;34.30;19.80;;;;;;;;;;5065860;28;20492;-73
2022/12/03 11:25:28;;;;;;;44.22;25.20;;;;;;;;;;5030518;28;20471;-73
2022/12/03 11:28:12;;;;;;;32.65;19.73;;;;;;;;;;5047759;28;20984;-73
2022/12/03 11:30:50;;;;;;;31.60;18.70;;;;;;;;;;5044478;28;20463;-73
2022/12/03 11:33:26;;;;;;;32.75;19.35;;;;;;;;;;5043624;28;20457;-73
2022/12/03 11:36:04;;;;;;;32.47;19.55;;;;;;;;;;5049926;28;20401;-73
2022/12/03 11:38:36;;;;;;;30.63;19.38;;;;;;;;;;5053018;28;20422;-73
2022/12/03 11:41:16;;;;;;;33.42;18.77;;;;;;;;;;5031289;28;20899;-73
2022/12/03 11:43:52;;;;;;;32.38;19.83;;;;;;;;;;5061327;28;20470;-73
2022/12/03 11:46:29;;;;;;;34.83;20.07;;;;;;;;;;5035097;28;20837;-72
2022/12/03 11:48:57;;;;;;;34.88;19.90;;;;;;;;;;5037221;28;20446;-73
2022/12/03 11:51:24;;;;;;;34.80;20.40;;;;;;;;;;5040455;28;20475;-73
2022/12/03 11:53:51;;;;;;;33.30;19.80;;;;;;;;;;5051523;28;20502;-72
2022/12/03 11:56:19;;;;;;;33.60;19.67;;;;;;;;;;5052983;28;20427;-73
2022/12/03 11:58:46;;;;;;;32.25;19.20;;;;;;;;;;5031824;28;20419;-73
2022/12/03 12:01:13;;;;;;;30.63;18.98;;;;;;;;;;5046479;28;20433;-73
2022/12/03 12:03:42;;;;;;;35.90;20.48;;;;;;;;;;5048573;28;20427;-73
2022/12/03 12:06:09;;;;;;;33.28;20.17;;;;;;;;;;5044576;28;20450;-72
2022/12/03 12:08:37;;;;;;;34.70;19.80;;;;;;;;;;5042292;28;20428;-72
2022/12/03 12:11:15;;;;;;;33.78;19.67;;;;;;;;;;5044868;28;20442;-73
2022/12/03 12:13:41;;;;;;;33.70;19.77;;;;;;;;;;5033173;28;20481;-72
2022/12/03 12:16:08;;;;;;;34.67;20.93;;;;;;;;;;5025877;28;20587;-72
2022/12/03 12:18:34;;;;;;;33.40;19.97;;;;;;;;;;5041475;28;20473;-74
2022/12/03 12:21:19;;;;;;;34.55;20.55;;;;;;;;;;5035350;28;20781;-72
2022/12/03 12:23:48;;;;;;;33.45;19.52;;;;;;;;;;5049526;28;20446;-72
2022/12/03 12:26:14;;;;;;;34.70;19.17;;;;;;;;;;5051999;28;20430;-73
2022/12/03 12:28:40;;;;;;;34.17;18.55;;;;;;;;;;5044517;28;20427;-72
2022/12/03 12:31:10;;;;;;;33.10;19.63;;;;;;;;;;5043239;28;20443;-72
2022/12/03 12:33:36;;;;;;;33.63;20.67;;;;;;;;;;5048468;28;20423;-72
2022/12/03 12:36:07;;;;;;;35.55;19.38;;;;;;;;;;5070503;28;20399;-73
2022/12/03 12:38:34;;;;;;;34.17;18.95;;;;;;;;;;5033528;28;20477;-73
2022/12/03 12:41:02;;;;;;;36.60;20.33;;;;;;;;;;5045673;28;20430;-73
2022/12/03 12:43:31;;;;;;;35.53;19.77;;;;;;;;;;5067583;28;20419;-73
2022/12/03 12:46:05;;;;;;;33.65;19.15;;;;;;;;;;5042433;28;20434;-73
2022/12/03 12:48:33;;;;;;;31.70;18.43;;;;;;;;;;5044009;28;20432;-73
2022/12/03 12:51:01;;;;;;;31.77;19.08;;;;;;;;;;5036919;28;20433;-72
2022/12/03 12:53:30;;;;;;;29.95;19.45;;;;;;;;;;5051848;28;20415;-74
2022/12/03 12:56:00;;;;;;;32.70;19.08;;;;;;;;;;5051827;28;20476;-72
2022/12/03 12:58:27;;;;;;;33.50;19.65;;;;;;;;;;5045273;28;20444;-72
2022/12/03 13:00:58;;;;;;;32.83;19.80;;;;;;;;;;5047950;28;20911;-72
2022/12/03 13:03:25;;;;;;;31.35;18.90;;;;;;;;;;5047088;28;20440;-72
2022/12/03 13:05:52;;;;;;;34.53;19.35;;;;;;;;;;5027443;28;20907;-72
2022/12/03 13:08:23;;;;;;;31.63;18.20;;;;;;;;;;5030212;28;20475;-72
2022/12/03 13:10:50;;;;;;;29.73;18.10;;;;;;;;;;5040609;28;20477;-72
2022/12/03 13:13:39;;;;;;;32.20;18.80;;;;;;;;;;5042667;28;20423;-72
2022/12/03 13:16:07;;;;;;;32.38;18.73;;;;;;;;;;5029505;28;20421;-72
2022/12/03 13:18:33;;;;;;;32.60;19.88;;;;;;;;;;5047829;28;20535;-72
2022/12/03 13:20:59;;;;;;;30.48;17.70;;;;;;;;;;5027588;28;20425;-72
2022/12/03 13:23:30;;;;;;;30.75;17.75;;;;;;;;;;5055368;28;20423;-73
2022/12/03 13:25:57;;;;;;;31.77;19.13;;;;;;;;;;5037570;28;20434;-72
2022/12/03 13:28:23;;;;;;;29.93;18.70;;;;;;;;;;5050370;28;20466;-72
2022/12/03 13:30:49;;;;;;;32.20;19.25;;;;;;;;;;5053014;28;20458;-72
2022/12/03 13:33:24;;;;;;;29.98;18.52;;;;;;;;;;5055255;28;20415;-72
2022/12/03 13:35:51;;;;;;;33.35;19.08;;;;;;;;;;5055545;28;20408;-72
2022/12/03 13:38:18;;;;;;;32.88;18.67;;;;;;;;;;5038659;28;20396;-73
2022/12/03 13:40:45;;;;;;;31.70;17.83;;;;;;;;;;5054358;28;20450;-73
2022/12/03 13:43:15;;;;;;;31.42;18.13;;;;;;;;;;5054881;28;20486;-73
2022/12/03 13:45:44;;;;;;;32.30;19.30;;;;;;;;;;5054766;28;20427;-73
2022/12/03 13:48:23;;;;;;;33.30;19.50;;;;;;;;;;5037889;28;20430;-73
2022/12/03 13:50:50;;;;;;;33.20;19.15;;;;;;;;;;5055097;28;20423;-73
2022/12/03 13:53:24;;;;;;;34.13;18.60;;;;;;;;;;5054257;28;20431;-73
2022/12/03 13:55:56;;;;;;;30.23;19.55;;;;;;;;;;5053902;28;20411;-73
2022/12/03 13:58:22;;;;;;;31.10;17.88;;;;;;;;;;5029973;28;20444;-73
2022/12/03 14:00:48;;;;;;;33.88;19.42;;;;;;;;;;5054963;28;20408;-73
2022/12/03 14:03:14;;;;;;;37.50;20.30;;;;;;;;;;5055212;28;20407;-73
2022/12/03 14:05:41;;;;;;;47.92;25.77;;;;;;;;;;5054154;28;20422;-73
2022/12/03 14:08:07;;;;;;;38.70;22.00;;;;;;;;;;5054194;28;20921;-73
2022/12/03 14:10:33;;;;;;;31.77;18.83;;;;;;;;;;5038538;28;20416;-74
2022/12/03 14:12:59;;;;;;;31.65;19.77;;;;;;;;;;5052630;28;20439;-74
2022/12/03 14:15:25;;;;;;;33.67;18.73;;;;;;;;;;5054859;28;20450;-74
2022/12/03 14:17:52;;;;;;;34.10;18.95;;;;;;;;;;5053789;28;20498;-72
2022/12/03 14:20:18;;;;;;;29.80;19.23;;;;;;;;;;5040971;28;20420;-72
2022/12/03 14:22:48;;;;;;;35.45;19.70;;;;;;;;;;5030719;28;20493;-72
2022/12/03 14:25:14;;;;;;;32.33;19.00;;;;;;;;;;5046142;28;20514;-73
2022/12/03 14:27:40;;;;;;;30.33;18.83;;;;;;;;;;5031546;28;20434;-74
2022/12/03 14:30:06;;;;;;;30.83;18.90;;;;;;;;;;5041462;28;20455;-74
2022/12/03 14:32:32;;;;;;;30.48;18.67;;;;;;;;;;5051756;28;20473;-73
2022/12/03 14:34:58;;;;;;;28.73;18.70;;;;;;;;;;5029674;28;20419;-73
2022/12/03 14:37:24;;;;;;;31.05;19.50;;;;;;;;;;5048292;28;20423;-72
2022/12/03 14:39:51;;;;;;;32.80;19.77;;;;;;;;;;5041937;28;20442;-72